Terminal Aerodrome Forecast
Issued by NWS

Home | Current Version | Previous Version | Text Only | Print | Product List | Glossary On
Versions: 1 2 3 4 5 6 7 8 9 10 11 12
513
FTUS43 KOAX 241121
TAFBFF
TAF
KBFF 241121Z 2412/2512 29018G28KT P6SM SCT250
     FM241500 31018G30KT P6SM SKC
     FM241800 34015G25KT P6SM SCT050 BKN100
     FM250000 31008KT P6SM SCT250=

USA.gov is the U.S. government's official web portal to all federal, state and local government web resources and services.